createdAt,value
2018-11-05T00:02:20.130Z,10.60
2018-11-05T00:04:48.455Z,10.43
2018-11-05T00:07:16.718Z,10.53
2018-11-05T00:09:45.007Z,10.60
2018-11-05T00:12:13.267Z,10.00
2018-11-05T00:14:41.671Z,10.77
2018-11-05T00:17:10.053Z,11.03
2018-11-05T00:19:38.478Z,10.40
2018-11-05T00:22:07.145Z,10.80
2018-11-05T00:24:35.588Z,10.30
2018-11-05T00:27:03.945Z,10.33
2018-11-05T00:29:32.217Z,9.60
2018-11-05T00:32:00.467Z,9.40
2018-11-05T00:34:28.735Z,10.33
2018-11-05T00:36:56.986Z,10.50
2018-11-05T00:39:25.300Z,10.57
2018-11-05T00:41:53.539Z,9.90
2018-11-05T00:44:21.812Z,10.77
2018-11-05T00:46:50.075Z,10.17
2018-11-05T00:49:18.493Z,11.10
2018-11-05T00:51:46.875Z,10.60
2018-11-05T00:54:15.260Z,10.50
2018-11-05T00:56:43.579Z,11.60
2018-11-05T00:59:11.928Z,10.83
2018-11-05T01:01:40.420Z,10.30
2018-11-05T01:04:08.836Z,10.63
2018-11-05T01:06:37.176Z,11.80
2018-11-05T01:09:06.767Z,9.90
2018-11-05T01:11:35.175Z,10.33
2018-11-05T01:14:03.616Z,9.73
2018-11-05T01:16:31.882Z,11.63
2018-11-05T01:19:00.135Z,10.10
2018-11-05T01:21:28.431Z,10.07
2018-11-05T01:23:56.682Z,9.90
2018-11-05T01:26:24.996Z,8.83
2018-11-05T01:28:53.291Z,9.33
2018-11-05T01:31:21.547Z,9.33
2018-11-05T01:33:49.835Z,9.10
2018-11-05T01:36:18.152Z,10.03
2018-11-05T01:38:46.487Z,10.13
2018-11-05T01:41:14.757Z,10.47
2018-11-05T01:43:43.003Z,9.73
2018-11-05T01:46:11.292Z,10.77
2018-11-05T01:48:39.560Z,9.77
2018-11-05T01:51:07.867Z,10.33
2018-11-05T01:53:36.143Z,9.87
2018-11-05T01:56:04.627Z,9.10
2018-11-05T01:58:32.872Z,9.87
2018-11-05T02:01:01.181Z,9.57
2018-11-05T02:03:29.518Z,8.97
2018-11-05T02:05:57.819Z,10.60
2018-11-05T02:08:26.079Z,10.13
2018-11-05T02:10:54.394Z,9.43
2018-11-05T02:13:22.792Z,10.17
2018-11-05T02:15:51.374Z,10.20
2018-11-05T02:18:19.666Z,9.77
2018-11-05T02:20:47.986Z,10.40
2018-11-05T02:23:16.339Z,10.03
2018-11-05T02:25:44.638Z,9.57
2018-11-05T02:28:13.000Z,10.47
2018-11-05T02:30:41.283Z,10.30
2018-11-05T02:33:09.584Z,9.97
2018-11-05T02:35:37.952Z,10.53
2018-11-05T02:38:06.290Z,10.40
2018-11-05T02:40:34.584Z,10.83
2018-11-05T02:43:02.872Z,9.90
2018-11-05T02:45:31.331Z,9.80
2018-11-05T02:47:59.625Z,10.40
2018-11-05T02:50:28.067Z,10.53
2018-11-05T02:52:56.354Z,10.17
2018-11-05T02:55:24.648Z,10.50
2018-11-05T02:57:53.050Z,11.70
2018-11-05T03:00:21.652Z,10.57
2018-11-05T03:02:50.025Z,11.07
2018-11-05T03:05:19.428Z,12.07
2018-11-05T03:07:48.410Z,11.33
2018-11-05T03:10:16.897Z,12.03
2018-11-05T03:12:46.255Z,11.80
2018-11-05T03:15:16.661Z,11.93
2018-11-05T03:17:44.988Z,12.57
2018-11-05T03:20:13.977Z,12.60
2018-11-05T03:22:42.746Z,13.27
2018-11-05T03:25:11.025Z,12.33
2018-11-05T03:27:39.627Z,12.60
2018-11-05T03:30:10.507Z,11.70
2018-11-05T03:32:38.949Z,12.50
2018-11-05T03:35:07.996Z,12.80
2018-11-05T03:37:36.372Z,12.83
2018-11-05T03:40:05.274Z,13.17
2018-11-05T03:42:33.551Z,12.90
2018-11-05T03:45:01.816Z,11.50
2018-11-05T03:47:30.071Z,12.33
2018-11-05T03:49:58.384Z,12.53
2018-11-05T03:52:26.668Z,12.10
2018-11-05T03:54:55.007Z,12.53
2018-11-05T03:57:23.255Z,12.17
2018-11-05T03:59:51.699Z,12.47
2018-11-05T04:02:20.046Z,12.47
2018-11-05T04:04:48.368Z,12.40
2018-11-05T04:07:16.687Z,12.50
2018-11-05T04:09:44.999Z,13.07
2018-11-05T04:12:13.300Z,12.90
2018-11-05T04:14:41.634Z,13.13
2018-11-05T04:17:09.935Z,12.87
2018-11-05T04:19:38.286Z,12.57
2018-11-05T04:22:06.600Z,13.40
2018-11-05T04:24:34.956Z,13.87
2018-11-05T04:27:03.331Z,13.87
2018-11-05T04:29:31.640Z,14.37
2018-11-05T04:31:59.950Z,13.33
2018-11-05T04:34:28.294Z,15.13
2018-11-05T04:36:56.612Z,13.63
2018-11-05T04:39:24.923Z,13.10
2018-11-05T04:41:53.241Z,13.87
2018-11-05T04:44:21.579Z,14.57
2018-11-05T04:46:49.963Z,13.73
2018-11-05T04:49:18.346Z,14.60
2018-11-05T04:51:46.789Z,15.50
2018-11-05T04:54:15.092Z,14.43
2018-11-05T04:56:43.479Z,14.63
2018-11-05T04:59:11.785Z,15.20
2018-11-05T05:01:40.128Z,13.37
2018-11-05T05:04:08.460Z,13.77
2018-11-05T05:06:36.846Z,15.37
2018-11-05T05:09:08.487Z,11.27
2018-11-05T05:11:36.824Z,14.90
2018-11-05T05:14:07.209Z,14.70
2018-11-05T05:16:35.571Z,12.87
2018-11-05T05:19:04.138Z,14.93
2018-11-05T05:21:32.603Z,14.77
2018-11-05T05:24:01.412Z,14.80
2018-11-05T05:26:29.747Z,15.27
2018-11-05T05:28:58.039Z,15.27
2018-11-05T05:31:26.355Z,14.80
2018-11-05T05:33:54.671Z,14.47
2018-11-05T05:36:23.025Z,16.10
2018-11-05T05:38:51.338Z,14.67
2018-11-05T05:41:19.952Z,14.60
2018-11-05T05:43:48.228Z,15.90
2018-11-05T05:46:16.585Z,16.07
2018-11-05T05:48:44.863Z,17.37
2018-11-05T05:51:13.188Z,15.57
2018-11-05T05:53:41.495Z,15.30
2018-11-05T05:56:09.824Z,16.00
2018-11-05T05:58:38.307Z,16.60
2018-11-05T06:01:06.634Z,16.17
2018-11-05T06:03:34.947Z,16.90
2018-11-05T06:06:03.382Z,16.03
2018-11-05T06:08:31.714Z,16.90
2018-11-05T06:11:00.132Z,15.53
2018-11-05T06:13:28.448Z,14.63
2018-11-05T06:15:56.836Z,15.67
2018-11-05T06:18:25.184Z,17.73
2018-11-05T06:20:53.599Z,16.20
2018-11-05T06:23:21.961Z,16.37
2018-11-05T06:25:50.425Z,16.40
2018-11-05T06:28:18.967Z,15.90
2018-11-05T06:30:47.727Z,16.60
2018-11-05T06:33:17.643Z,15.40
2018-11-05T06:35:45.990Z,17.07
2018-11-05T06:38:14.452Z,17.23
2018-11-05T06:40:42.915Z,17.37
2018-11-05T06:43:11.280Z,16.03
2018-11-05T06:45:39.575Z,15.93
2018-11-05T06:48:07.950Z,16.50
2018-11-05T06:50:36.260Z,15.40
2018-11-05T06:53:04.754Z,16.90
2018-11-05T06:55:33.049Z,16.40
2018-11-05T06:58:01.403Z,17.07
2018-11-05T07:00:29.928Z,16.13
2018-11-05T07:02:58.276Z,16.97
2018-11-05T07:05:26.576Z,17.33
2018-11-05T07:07:54.963Z,16.93
2018-11-05T07:10:23.336Z,17.30
2018-11-05T07:12:51.679Z,18.13
2018-11-05T07:15:20.305Z,18.80
2018-11-05T07:17:49.491Z,18.03
2018-11-05T07:20:18.993Z,18.10
2018-11-05T07:22:48.331Z,17.90
2018-11-05T07:25:16.916Z,19.20
2018-11-05T07:27:45.315Z,18.83
2018-11-05T07:30:18.943Z,18.07
2018-11-05T07:32:48.068Z,19.73
2018-11-05T07:35:16.724Z,19.30
2018-11-05T07:37:45.060Z,20.13
2018-11-05T07:40:14.937Z,19.60
2018-11-05T07:42:43.447Z,18.67
2018-11-05T07:45:17.508Z,18.80
2018-11-05T07:47:46.499Z,18.77
2018-11-05T07:50:15.816Z,17.00
2018-11-05T07:52:44.179Z,18.33
2018-11-05T07:55:13.796Z,18.00
2018-11-05T07:57:43.225Z,19.27
2018-11-05T08:00:18.388Z,18.63
2018-11-05T08:02:50.404Z,19.50
2018-11-05T08:05:20.288Z,16.70
2018-11-05T08:07:49.008Z,18.50
2018-11-05T08:10:17.482Z,19.97
2018-11-05T08:12:46.105Z,18.53
2018-11-05T08:15:17.483Z,18.67
2018-11-05T08:17:47.135Z,18.77
2018-11-05T08:20:15.831Z,20.07
2018-11-05T08:22:44.622Z,18.87
2018-11-05T08:25:19.654Z,18.30
2018-11-05T08:27:48.504Z,19.30
2018-11-05T08:30:25.162Z,19.00
2018-11-05T08:32:54.175Z,16.37
2018-11-05T08:35:23.849Z,20.87
2018-11-05T08:37:53.501Z,20.30
2018-11-05T08:40:25.158Z,20.70
2018-11-05T08:42:54.715Z,18.30
2018-11-05T08:45:24.590Z,20.10
2018-11-05T08:47:53.747Z,20.77
2018-11-05T08:50:23.140Z,21.47
2018-11-05T08:52:51.780Z,22.07
2018-11-05T08:55:21.953Z,16.53
2018-11-05T08:57:50.594Z,19.87
2018-11-05T09:00:24.781Z,20.83
2018-11-05T09:02:54.418Z,20.30
2018-11-05T09:05:23.530Z,18.67
2018-11-05T09:07:54.459Z,15.73
2018-11-05T09:10:23.763Z,20.50
2018-11-05T09:12:52.849Z,18.87
2018-11-05T09:15:23.020Z,17.83
2018-11-05T09:17:51.910Z,18.97
2018-11-05T09:20:21.509Z,20.53
2018-11-05T09:22:50.939Z,20.90
2018-11-05T09:25:19.807Z,19.63
2018-11-05T09:27:49.094Z,18.83
2018-11-05T09:30:22.645Z,17.27
2018-11-05T09:32:51.833Z,19.30
2018-11-05T09:35:21.322Z,13.50
2018-11-05T09:37:50.038Z,14.00
2018-11-05T09:40:23.344Z,20.20
2018-11-05T09:42:52.977Z,16.40
2018-11-05T09:45:24.143Z,17.07
2018-11-05T09:47:53.954Z,18.33
2018-11-05T09:50:24.246Z,19.20
2018-11-05T09:52:52.854Z,19.90
2018-11-05T09:55:21.911Z,20.33
2018-11-05T09:57:50.442Z,18.17
2018-11-05T10:00:20.517Z,14.50
2018-11-05T10:02:55.479Z,14.63
2018-11-05T10:05:24.768Z,20.23
2018-11-05T10:07:53.581Z,19.37
2018-11-05T10:10:22.582Z,15.67
2018-11-05T10:12:51.476Z,16.80
2018-11-05T10:15:20.363Z,19.37
2018-11-05T10:17:49.014Z,19.80
2018-11-05T10:20:19.318Z,20.13
2018-11-05T10:22:48.037Z,19.13
2018-11-05T10:25:17.047Z,20.03
2018-11-05T10:27:45.686Z,20.13
2018-11-05T10:30:18.128Z,18.53
2018-11-05T10:32:46.691Z,21.53
2018-11-05T10:35:15.999Z,17.77
2018-11-05T10:37:44.471Z,19.60
2018-11-05T10:40:14.843Z,16.63
2018-11-05T10:42:44.171Z,17.10
2018-11-05T10:45:13.956Z,20.47
2018-11-05T10:47:42.417Z,13.83
2018-11-05T10:50:12.620Z,15.13
2018-11-05T10:52:40.964Z,19.97
2018-11-05T10:55:09.837Z,21.17
2018-11-05T10:57:38.577Z,21.47
2018-11-05T11:00:14.688Z,22.10
2018-11-05T11:02:43.026Z,19.70
2018-11-05T11:05:11.326Z,19.70
2018-11-05T11:07:39.864Z,19.77
2018-11-05T11:10:08.210Z,14.73
2018-11-05T11:12:36.619Z,18.53
2018-11-05T11:15:05.891Z,21.60
2018-11-05T11:17:34.189Z,21.67
2018-11-05T11:20:02.465Z,22.40
2018-11-05T11:22:30.765Z,18.23
2018-11-05T11:24:59.072Z,16.83
2018-11-05T11:27:27.371Z,20.73
2018-11-05T11:29:55.646Z,18.40
2018-11-05T11:32:23.950Z,18.27
2018-11-05T11:34:52.363Z,20.53
2018-11-05T11:37:20.852Z,20.17
2018-11-05T11:39:49.210Z,21.53
2018-11-05T11:42:17.698Z,18.03
2018-11-05T11:44:46.032Z,19.90
2018-11-05T11:47:14.302Z,19.93
2018-11-05T11:49:42.966Z,21.43
2018-11-05T11:52:11.308Z,20.00
2018-11-05T11:54:39.600Z,20.37
2018-11-05T11:57:08.011Z,19.27
2018-11-05T11:59:36.471Z,19.70
2018-11-05T12:02:10.409Z,19.77
2018-11-05T12:04:38.998Z,21.83
2018-11-05T12:07:07.498Z,19.50
2018-11-05T12:09:36.227Z,18.77
2018-11-05T12:12:04.783Z,20.73
2018-11-05T12:14:33.264Z,21.70
2018-11-05T12:17:01.514Z,19.83
2018-11-05T12:19:29.954Z,21.27
2018-11-05T12:21:58.275Z,16.10
2018-11-05T12:24:26.816Z,18.43
2018-11-05T12:26:55.095Z,19.70
2018-11-05T12:29:23.485Z,19.13
2018-11-05T12:31:51.844Z,16.27
2018-11-05T12:34:20.292Z,21.07
2018-11-05T12:36:49.016Z,20.07
2018-11-05T12:39:17.389Z,21.33
2018-11-05T12:41:45.816Z,19.63
2018-11-05T12:44:14.103Z,19.70
2018-11-05T12:46:42.496Z,18.97
2018-11-05T12:49:10.889Z,19.80
2018-11-05T12:51:39.164Z,19.40
2018-11-05T12:54:07.479Z,20.97
2018-11-05T12:56:35.946Z,16.30
2018-11-05T12:59:04.283Z,14.67
2018-11-05T13:01:32.640Z,14.23
2018-11-05T13:04:00.994Z,15.90
2018-11-05T13:06:29.458Z,20.47
2018-11-05T13:08:57.746Z,18.60
2018-11-05T13:11:26.157Z,15.40
2018-11-05T13:13:54.556Z,18.37
2018-11-05T13:16:22.983Z,18.10
2018-11-05T13:18:51.585Z,17.77
2018-11-05T13:21:20.037Z,14.67
2018-11-05T13:23:48.380Z,16.00
2018-11-05T13:26:17.143Z,18.70
2018-11-05T13:28:45.479Z,18.17
2018-11-05T13:31:13.963Z,19.97
2018-11-05T13:33:42.324Z,20.07
2018-11-05T13:36:10.680Z,19.47
2018-11-05T13:38:39.264Z,19.23
2018-11-05T13:41:07.411Z,21.67
2018-11-05T13:43:35.703Z,19.73
2018-11-05T13:46:04.549Z,20.23
2018-11-05T13:48:33.394Z,20.57
2018-11-05T13:51:00.932Z,21.40
2018-11-05T13:53:29.203Z,21.70
2018-11-05T13:55:57.491Z,19.40
2018-11-05T13:58:26.123Z,21.23
2018-11-05T14:00:54.581Z,21.30
2018-11-05T14:03:23.204Z,20.30
2018-11-05T14:05:51.574Z,21.37
2018-11-05T14:08:20.366Z,21.07
2018-11-05T14:10:48.811Z,19.80
2018-11-05T14:13:17.247Z,20.77
2018-11-05T14:15:46.528Z,20.93
2018-11-05T14:18:14.942Z,21.07
2018-11-05T14:20:43.215Z,22.60
2018-11-05T14:23:11.612Z,21.03
2018-11-05T14:25:40.042Z,20.33
2018-11-05T14:28:08.713Z,20.73
2018-11-05T14:30:36.667Z,18.57
2018-11-05T14:33:04.978Z,21.30
2018-11-05T14:35:33.268Z,18.87
2018-11-05T14:38:01.645Z,20.33
2018-11-05T14:40:36.617Z,21.03
2018-11-05T14:43:05.557Z,21.97
2018-11-05T14:45:33.820Z,18.60
2018-11-05T14:48:02.117Z,19.33
2018-11-05T14:50:30.496Z,18.10
2018-11-05T14:52:58.754Z,18.33
2018-11-05T14:55:27.104Z,20.10
2018-11-05T14:57:55.492Z,18.80
2018-11-05T15:00:27.832Z,18.57
2018-11-05T15:02:56.788Z,18.47
2018-11-05T15:05:25.761Z,18.63
2018-11-05T15:07:54.076Z,18.37
2018-11-05T15:10:23.803Z,18.83
2018-11-05T15:12:52.183Z,19.07
2018-11-05T15:15:21.311Z,18.73
2018-11-05T15:17:49.875Z,18.97
2018-11-05T15:20:20.654Z,17.80
2018-11-05T15:22:49.048Z,19.20
2018-11-05T15:25:18.206Z,18.70
2018-11-05T15:27:46.602Z,19.17
2018-11-05T15:30:17.613Z,19.10
2018-11-05T15:32:46.403Z,20.00
2018-11-05T15:35:15.012Z,18.30
2018-11-05T15:37:43.888Z,19.90
2018-11-05T15:40:14.156Z,18.57
2018-11-05T15:42:42.542Z,18.73
2018-11-05T15:45:13.089Z,20.90
2018-11-05T15:47:41.996Z,19.70
2018-11-05T15:50:12.422Z,18.53
2018-11-05T15:52:41.090Z,17.87
2018-11-05T15:55:09.623Z,18.83
2018-11-05T15:57:38.755Z,18.73
2018-11-05T16:00:14.179Z,20.40
2018-11-05T16:02:42.649Z,20.23
2018-11-05T16:05:11.048Z,20.13
2018-11-05T16:07:39.490Z,18.20
2018-11-05T16:10:08.416Z,18.80
2018-11-05T16:12:37.285Z,18.17
2018-11-05T16:15:06.718Z,20.50
2018-11-05T16:17:35.467Z,18.83
2018-11-05T16:20:04.130Z,19.23
2018-11-05T16:22:32.429Z,18.50
2018-11-05T16:25:01.092Z,19.27
2018-11-05T16:27:29.773Z,19.37
2018-11-05T16:29:58.703Z,18.80
2018-11-05T16:32:27.267Z,19.23
2018-11-05T16:34:56.467Z,19.47
2018-11-05T16:37:24.920Z,20.40
2018-11-05T16:39:53.531Z,19.67
2018-11-05T16:42:21.880Z,19.00
2018-11-05T16:44:50.488Z,21.70
2018-11-05T16:47:18.810Z,21.30
2018-11-05T16:49:47.191Z,20.93
2018-11-05T16:52:15.552Z,21.63
2018-11-05T16:54:43.945Z,24.13
2018-11-05T16:57:12.259Z,22.10
2018-11-05T16:59:40.602Z,27.53
2018-11-05T17:02:14.227Z,20.80
2018-11-05T17:04:43.271Z,19.20
2018-11-05T17:07:11.588Z,19.00
2018-11-05T17:09:39.963Z,19.60
2018-11-05T17:12:08.347Z,19.37
2018-11-05T17:14:36.701Z,19.13
2018-11-05T17:17:05.060Z,18.73
2018-11-05T17:19:33.612Z,17.67
2018-11-05T17:22:02.255Z,18.83
2018-11-05T17:24:30.703Z,18.90
2018-11-05T17:26:59.031Z,19.90
2018-11-05T17:29:27.546Z,21.20
2018-11-05T17:31:56.108Z,19.73
2018-11-05T17:34:24.468Z,19.37
2018-11-05T17:36:53.087Z,19.53
2018-11-05T17:39:21.635Z,20.73
2018-11-05T17:41:50.141Z,17.73
2018-11-05T17:44:18.572Z,18.53
2018-11-05T17:46:47.076Z,21.93
2018-11-05T17:49:15.416Z,19.80
2018-11-05T17:51:43.955Z,19.07
2018-11-05T17:54:12.267Z,19.43
2018-11-05T17:56:40.634Z,20.10
2018-11-05T17:59:08.944Z,19.53
2018-11-05T18:01:37.276Z,19.30
2018-11-05T18:04:05.636Z,19.13
2018-11-05T18:06:34.056Z,23.50
2018-11-05T18:09:02.384Z,20.43
2018-11-05T18:11:30.761Z,21.37
2018-11-05T18:13:59.079Z,19.83
2018-11-05T18:16:27.406Z,19.03
2018-11-05T18:18:56.792Z,21.00
2018-11-05T18:21:25.208Z,19.60
2018-11-05T18:23:53.632Z,20.47
2018-11-05T18:26:22.005Z,21.43
2018-11-05T18:28:50.447Z,21.83
2018-11-05T18:31:18.936Z,22.33
2018-11-05T18:33:47.404Z,21.33
2018-11-05T18:36:15.832Z,21.37
2018-11-05T18:38:44.273Z,20.93
2018-11-05T18:41:12.622Z,20.87
2018-11-05T18:43:41.050Z,23.57
2018-11-05T18:46:09.417Z,23.07
2018-11-05T18:48:37.709Z,20.47
2018-11-05T18:51:06.084Z,20.47
2018-11-05T18:53:34.459Z,21.33
2018-11-05T18:56:02.783Z,21.60
2018-11-05T18:58:31.255Z,21.13
2018-11-05T19:00:59.597Z,19.43
2018-11-05T19:03:28.078Z,21.97
2018-11-05T19:05:56.345Z,20.17
2018-11-05T19:08:24.907Z,21.83
2018-11-05T19:10:53.355Z,25.73
2018-11-05T19:13:21.743Z,23.27
2018-11-05T19:15:50.262Z,26.73
2018-11-05T19:18:18.593Z,25.60
2018-11-05T19:20:46.971Z,24.03
2018-11-05T19:23:15.498Z,26.03
2018-11-05T19:25:43.944Z,26.10
2018-11-05T19:28:12.885Z,26.57
2018-11-05T19:30:41.385Z,25.60
2018-11-05T19:33:09.662Z,25.53
2018-11-05T19:35:37.951Z,26.50
2018-11-05T19:38:06.393Z,22.93
2018-11-05T19:40:34.788Z,22.50
2018-11-05T19:43:03.146Z,22.10
2018-11-05T19:45:31.545Z,22.07
2018-11-05T19:47:59.935Z,21.10
2018-11-05T19:50:28.513Z,22.57
2018-11-05T19:52:57.316Z,24.43
2018-11-05T19:55:26.140Z,24.33
2018-11-05T19:57:54.473Z,21.10
2018-11-05T20:00:27.037Z,18.90
2018-11-05T20:02:56.143Z,20.27
2018-11-05T20:05:24.691Z,20.80
2018-11-05T20:07:53.868Z,19.77
2018-11-05T20:10:22.307Z,19.20
2018-11-05T20:12:50.949Z,21.83
2018-11-05T20:15:19.505Z,23.40
2018-11-05T20:17:49.112Z,21.07
2018-11-05T20:20:19.087Z,21.90
2018-11-05T20:22:47.494Z,22.43
2018-11-05T20:25:15.819Z,21.27
2018-11-05T20:27:44.834Z,21.33
2018-11-05T20:30:15.972Z,22.27
2018-11-05T20:32:45.931Z,22.47
2018-11-05T20:35:14.339Z,21.93
2018-11-05T20:37:42.679Z,22.47
2018-11-05T20:40:13.540Z,20.97
2018-11-05T20:42:42.900Z,22.60
2018-11-05T20:45:11.417Z,21.60
2018-11-05T20:47:40.377Z,21.53
2018-11-05T20:50:09.627Z,20.83
2018-11-05T20:52:38.472Z,23.00
2018-11-05T20:55:07.607Z,21.43
2018-11-05T20:57:36.024Z,21.53
2018-11-05T21:00:04.997Z,20.93
2018-11-05T21:02:33.524Z,21.13
2018-11-05T21:05:01.987Z,22.43
2018-11-05T21:07:30.377Z,20.53
2018-11-05T21:09:58.892Z,21.17
2018-11-05T21:12:27.358Z,20.13
2018-11-05T21:14:55.682Z,22.10
2018-11-05T21:17:24.364Z,21.60
2018-11-05T21:19:52.757Z,21.13
2018-11-05T21:22:21.233Z,21.67
2018-11-05T21:24:49.559Z,20.90
2018-11-05T21:27:18.213Z,21.47
2018-11-05T21:29:46.633Z,22.20
2018-11-05T21:32:14.998Z,23.40
2018-11-05T21:34:43.340Z,22.93
2018-11-05T21:37:11.629Z,21.60
2018-11-05T21:39:40.110Z,22.20
2018-11-05T21:42:08.448Z,23.40
2018-11-05T21:44:36.748Z,21.70
2018-11-05T21:47:05.088Z,23.03
2018-11-05T21:49:33.414Z,21.43
2018-11-05T21:52:01.739Z,23.23
2018-11-05T21:54:30.091Z,23.43
2018-11-05T21:56:58.421Z,22.63
2018-11-05T21:59:26.807Z,22.90
2018-11-05T22:01:55.298Z,23.30
2018-11-05T22:04:23.709Z,24.37
2018-11-05T22:06:52.087Z,23.33
2018-11-05T22:09:20.721Z,24.27
2018-11-05T22:11:49.222Z,23.30
2018-11-05T22:14:17.663Z,24.83
2018-11-05T22:16:45.996Z,24.23
2018-11-05T22:19:14.308Z,25.57
2018-11-05T22:21:42.589Z,24.23
2018-11-05T22:24:11.084Z,25.83
2018-11-05T22:26:39.375Z,26.33
2018-11-05T22:29:07.716Z,25.73
2018-11-05T22:31:36.050Z,26.03
2018-11-05T22:34:04.627Z,25.17
2018-11-05T22:36:32.943Z,25.93
2018-11-05T22:39:01.296Z,24.63
2018-11-05T22:41:29.605Z,26.47
2018-11-05T22:43:57.909Z,24.37
2018-11-05T22:46:26.380Z,24.47
2018-11-05T22:48:54.715Z,24.67
2018-11-05T22:51:26.465Z,23.33
2018-11-05T22:53:54.908Z,25.70
2018-11-05T22:56:24.026Z,24.03
2018-11-05T22:58:52.536Z,26.10
2018-11-05T23:01:26.533Z,25.87
2018-11-05T23:03:54.912Z,24.97
2018-11-05T23:06:23.354Z,24.30
2018-11-05T23:08:51.756Z,25.50
2018-11-05T23:11:20.247Z,25.13
2018-11-05T23:13:48.605Z,24.93
2018-11-05T23:16:16.951Z,25.43
2018-11-05T23:18:45.262Z,25.33
2018-11-05T23:21:13.668Z,25.10
2018-11-05T23:23:41.980Z,25.37
2018-11-05T23:26:10.351Z,25.30
2018-11-05T23:28:38.655Z,26.20
2018-11-05T23:31:06.927Z,27.83
2018-11-05T23:33:35.295Z,28.67
2018-11-05T23:36:03.535Z,27.00
2018-11-05T23:38:31.819Z,28.90
2018-11-05T23:41:00.214Z,25.90
2018-11-05T23:43:28.583Z,26.47
2018-11-05T23:45:56.891Z,27.27
2018-11-05T23:48:25.179Z,27.27
2018-11-05T23:50:53.500Z,27.27
2018-11-05T23:53:21.859Z,27.03
2018-11-05T23:55:50.247Z,26.30
2018-11-05T23:58:18.684Z,27.40
